sensor_id;sensor_type;location;lat;lon;timestamp;P1;durP1;ratioP1;P2;durP2;ratioP2
54193;SDS011;40102;50.906;6.972;2023-09-19T00:00:33;6.30;;;1.27;;
54193;SDS011;40102;50.906;6.972;2023-09-19T00:02:59;3.10;;;1.05;;
54193;SDS011;40102;50.906;6.972;2023-09-19T00:05:25;3.38;;;1.08;;
54193;SDS011;40102;50.906;6.972;2023-09-19T00:07:53;2.40;;;0.90;;
54193;SDS011;40102;50.906;6.972;2023-09-19T00:10:20;2.13;;;0.85;;
54193;SDS011;40102;50.906;6.972;2023-09-19T00:12:53;2.67;;;1.02;;
54193;SDS011;40102;50.906;6.972;2023-09-19T00:15:23;3.85;;;1.08;;
54193;SDS011;40102;50.906;6.972;2023-09-19T00:17:51;1.88;;;1.25;;
54193;SDS011;40102;50.906;6.972;2023-09-19T00:20:17;4.45;;;1.10;;
54193;SDS011;40102;50.906;6.972;2023-09-19T00:22:43;6.03;;;1.17;;
54193;SDS011;40102;50.906;6.972;2023-09-19T00:25:09;5.03;;;1.20;;
54193;SDS011;40102;50.906;6.972;2023-09-19T00:27:35;2.20;;;1.00;;
54193;SDS011;40102;50.906;6.972;2023-09-19T00:30:06;2.13;;;1.10;;
54193;SDS011;40102;50.906;6.972;2023-09-19T00:32:34;4.10;;;1.10;;
54193;SDS011;40102;50.906;6.972;2023-09-19T00:34:59;3.67;;;1.00;;
54193;SDS011;40102;50.906;6.972;2023-09-19T00:37:25;1.80;;;0.70;;
54193;SDS011;40102;50.906;6.972;2023-09-19T00:39:50;3.47;;;0.95;;
54193;SDS011;40102;50.906;6.972;2023-09-19T00:42:20;3.22;;;0.90;;
54193;SDS011;40102;50.906;6.972;2023-09-19T00:44:46;3.13;;;1.15;;
54193;SDS011;40102;50.906;6.972;2023-09-19T00:47:11;1.70;;;1.10;;
54193;SDS011;40102;50.906;6.972;2023-09-19T00:49:42;2.67;;;0.98;;
54193;SDS011;40102;50.906;6.972;2023-09-19T00:52:08;2.78;;;0.90;;
54193;SDS011;40102;50.906;6.972;2023-09-19T00:54:35;3.92;;;1.00;;
54193;SDS011;40102;50.906;6.972;2023-09-19T00:57:01;3.00;;;1.10;;
54193;SDS011;40102;50.906;6.972;2023-09-19T00:59:27;4.03;;;1.10;;
54193;SDS011;40102;50.906;6.972;2023-09-19T01:01:53;1.95;;;0.80;;
54193;SDS011;40102;50.906;6.972;2023-09-19T01:04:19;3.25;;;1.10;;
54193;SDS011;40102;50.906;6.972;2023-09-19T01:06:45;4.97;;;1.00;;
54193;SDS011;40102;50.906;6.972;2023-09-19T01:09:11;2.38;;;1.10;;
54193;SDS011;40102;50.906;6.972;2023-09-19T01:11:43;3.65;;;1.10;;
54193;SDS011;40102;50.906;6.972;2023-09-19T01:14:15;3.00;;;1.00;;
54193;SDS011;40102;50.906;6.972;2023-09-19T01:22:48;4.15;;;0.98;;
54193;SDS011;40102;50.906;6.972;2023-09-19T01:28:17;8.82;;;1.60;;
54193;SDS011;40102;50.906;6.972;2023-09-19T01:31:04;6.65;;;1.50;;
54193;SDS011;40102;50.906;6.972;2023-09-19T01:36:31;3.50;;;1.13;;
54193;SDS011;40102;50.906;6.972;2023-09-19T01:39:00;3.35;;;1.30;;
54193;SDS011;40102;50.906;6.972;2023-09-19T01:41:44;4.47;;;1.00;;
54193;SDS011;40102;50.906;6.972;2023-09-19T01:47:15;4.82;;;1.38;;
54193;SDS011;40102;50.906;6.972;2023-09-19T01:50:03;4.68;;;1.35;;
54193;SDS011;40102;50.906;6.972;2023-09-19T01:52:39;6.50;;;1.30;;
54193;SDS011;40102;50.906;6.972;2023-09-19T01:55:13;7.30;;;1.55;;
54193;SDS011;40102;50.906;6.972;2023-09-19T01:57:45;5.47;;;1.40;;
54193;SDS011;40102;50.906;6.972;2023-09-19T02:00:18;4.63;;;1.15;;
54193;SDS011;40102;50.906;6.972;2023-09-19T02:02:47;3.03;;;1.08;;
54193;SDS011;40102;50.906;6.972;2023-09-19T02:05:13;4.38;;;1.15;;
54193;SDS011;40102;50.906;6.972;2023-09-19T02:07:46;5.47;;;1.20;;
54193;SDS011;40102;50.906;6.972;2023-09-19T02:10:12;4.47;;;1.20;;
54193;SDS011;40102;50.906;6.972;2023-09-19T02:12:37;4.28;;;1.20;;
54193;SDS011;40102;50.906;6.972;2023-09-19T02:15:03;5.32;;;1.45;;
54193;SDS011;40102;50.906;6.972;2023-09-19T02:17:32;6.82;;;1.55;;
54193;SDS011;40102;50.906;6.972;2023-09-19T02:19:57;4.18;;;1.00;;
54193;SDS011;40102;50.906;6.972;2023-09-19T02:22:24;6.47;;;1.27;;
54193;SDS011;40102;50.906;6.972;2023-09-19T02:24:49;4.20;;;1.00;;
54193;SDS011;40102;50.906;6.972;2023-09-19T02:27:16;5.35;;;1.40;;
54193;SDS011;40102;50.906;6.972;2023-09-19T02:29:42;6.38;;;1.40;;
54193;SDS011;40102;50.906;6.972;2023-09-19T02:32:08;4.57;;;1.25;;
54193;SDS011;40102;50.906;6.972;2023-09-19T02:34:34;8.13;;;1.48;;
54193;SDS011;40102;50.906;6.972;2023-09-19T02:37:02;6.30;;;1.25;;
54193;SDS011;40102;50.906;6.972;2023-09-19T02:39:30;4.95;;;1.35;;
54193;SDS011;40102;50.906;6.972;2023-09-19T02:41:56;5.25;;;1.20;;
54193;SDS011;40102;50.906;6.972;2023-09-19T02:44:22;4.00;;;1.58;;
54193;SDS011;40102;50.906;6.972;2023-09-19T02:46:48;6.43;;;1.88;;
54193;SDS011;40102;50.906;6.972;2023-09-19T02:49:14;5.28;;;1.42;;
54193;SDS011;40102;50.906;6.972;2023-09-19T02:51:39;2.78;;;1.00;;
54193;SDS011;40102;50.906;6.972;2023-09-19T02:54:05;5.35;;;1.10;;
54193;SDS011;40102;50.906;6.972;2023-09-19T02:56:31;7.53;;;1.75;;
54193;SDS011;40102;50.906;6.972;2023-09-19T02:58:57;4.25;;;1.00;;
54193;SDS011;40102;50.906;6.972;2023-09-19T03:01:23;4.93;;;1.30;;
54193;SDS011;40102;50.906;6.972;2023-09-19T03:03:48;4.82;;;1.50;;
54193;SDS011;40102;50.906;6.972;2023-09-19T03:06:14;3.03;;;1.23;;
54193;SDS011;40102;50.906;6.972;2023-09-19T03:08:40;4.88;;;1.17;;
54193;SDS011;40102;50.906;6.972;2023-09-19T03:11:08;4.90;;;1.40;;
54193;SDS011;40102;50.906;6.972;2023-09-19T03:13:37;6.85;;;1.40;;
54193;SDS011;40102;50.906;6.972;2023-09-19T03:16:06;6.15;;;1.55;;
54193;SDS011;40102;50.906;6.972;2023-09-19T03:18:32;4.95;;;1.00;;
54193;SDS011;40102;50.906;6.972;2023-09-19T03:20:59;7.63;;;1.48;;
54193;SDS011;40102;50.906;6.972;2023-09-19T03:23:28;7.38;;;1.20;;
54193;SDS011;40102;50.906;6.972;2023-09-19T03:25:54;5.25;;;1.25;;
54193;SDS011;40102;50.906;6.972;2023-09-19T03:28:20;7.78;;;1.25;;
54193;SDS011;40102;50.906;6.972;2023-09-19T03:31:08;8.73;;;1.73;;
54193;SDS011;40102;50.906;6.972;2023-09-19T03:33:33;4.55;;;1.50;;
54193;SDS011;40102;50.906;6.972;2023-09-19T03:35:59;6.07;;;1.77;;
54193;SDS011;40102;50.906;6.972;2023-09-19T03:38:25;7.75;;;1.45;;
54193;SDS011;40102;50.906;6.972;2023-09-19T03:40:54;6.63;;;1.30;;
54193;SDS011;40102;50.906;6.972;2023-09-19T03:43:19;5.43;;;1.88;;
54193;SDS011;40102;50.906;6.972;2023-09-19T03:45:45;7.13;;;1.73;;
54193;SDS011;40102;50.906;6.972;2023-09-19T03:48:11;6.47;;;1.40;;
54193;SDS011;40102;50.906;6.972;2023-09-19T03:50:37;6.45;;;1.40;;
54193;SDS011;40102;50.906;6.972;2023-09-19T03:53:03;5.63;;;1.35;;
54193;SDS011;40102;50.906;6.972;2023-09-19T03:55:28;4.25;;;1.23;;
54193;SDS011;40102;50.906;6.972;2023-09-19T03:57:55;6.97;;;1.17;;
54193;SDS011;40102;50.906;6.972;2023-09-19T04:00:21;8.05;;;1.50;;
54193;SDS011;40102;50.906;6.972;2023-09-19T04:02:48;3.03;;;1.00;;
54193;SDS011;40102;50.906;6.972;2023-09-19T04:05:14;4.75;;;1.00;;
54193;SDS011;40102;50.906;6.972;2023-09-19T04:07:39;2.67;;;1.10;;
54193;SDS011;40102;50.906;6.972;2023-09-19T04:10:05;4.05;;;1.42;;
54193;SDS011;40102;50.906;6.972;2023-09-19T04:12:31;5.28;;;1.40;;
54193;SDS011;40102;50.906;6.972;2023-09-19T04:14:57;7.90;;;1.73;;
54193;SDS011;40102;50.906;6.972;2023-09-19T04:17:23;5.75;;;1.30;;
54193;SDS011;40102;50.906;6.972;2023-09-19T04:19:48;10.05;;;2.08;;
54193;SDS011;40102;50.906;6.972;2023-09-19T04:22:14;7.38;;;1.30;;
54193;SDS011;40102;50.906;6.972;2023-09-19T04:24:39;5.88;;;1.33;;
54193;SDS011;40102;50.906;6.972;2023-09-19T04:27:05;7.47;;;1.60;;
54193;SDS011;40102;50.906;6.972;2023-09-19T04:29:31;6.68;;;1.20;;
54193;SDS011;40102;50.906;6.972;2023-09-19T04:31:57;6.13;;;1.35;;
54193;SDS011;40102;50.906;6.972;2023-09-19T04:34:22;6.10;;;1.35;;
54193;SDS011;40102;50.906;6.972;2023-09-19T04:36:49;3.83;;;1.30;;
54193;SDS011;40102;50.906;6.972;2023-09-19T04:39:14;4.75;;;1.27;;
54193;SDS011;40102;50.906;6.972;2023-09-19T04:41:40;6.97;;;1.67;;
54193;SDS011;40102;50.906;6.972;2023-09-19T04:44:06;6.47;;;1.38;;
54193;SDS011;40102;50.906;6.972;2023-09-19T04:46:35;5.28;;;1.17;;
54193;SDS011;40102;50.906;6.972;2023-09-19T04:49:00;9.35;;;2.00;;
54193;SDS011;40102;50.906;6.972;2023-09-19T04:51:27;6.63;;;1.20;;
54193;SDS011;40102;50.906;6.972;2023-09-19T04:53:57;4.43;;;1.10;;
54193;SDS011;40102;50.906;6.972;2023-09-19T04:56:23;8.30;;;1.85;;
54193;SDS011;40102;50.906;6.972;2023-09-19T04:58:49;4.45;;;1.30;;
54193;SDS011;40102;50.906;6.972;2023-09-19T05:01:14;4.97;;;1.42;;
54193;SDS011;40102;50.906;6.972;2023-09-19T05:03:40;8.52;;;1.50;;
54193;SDS011;40102;50.906;6.972;2023-09-19T05:06:05;4.40;;;1.30;;
54193;SDS011;40102;50.906;6.972;2023-09-19T05:08:31;5.75;;;1.33;;
54193;SDS011;40102;50.906;6.972;2023-09-19T05:10:56;4.72;;;1.35;;
54193;SDS011;40102;50.906;6.972;2023-09-19T05:13:21;4.30;;;1.23;;
54193;SDS011;40102;50.906;6.972;2023-09-19T05:15:48;3.88;;;1.20;;
54193;SDS011;40102;50.906;6.972;2023-09-19T05:18:15;6.45;;;1.40;;
54193;SDS011;40102;50.906;6.972;2023-09-19T05:20:41;7.28;;;1.67;;
54193;SDS011;40102;50.906;6.972;2023-09-19T05:23:07;8.48;;;1.55;;
54193;SDS011;40102;50.906;6.972;2023-09-19T05:25:34;7.70;;;1.60;;
54193;SDS011;40102;50.906;6.972;2023-09-19T05:28:07;11.63;;;1.50;;
54193;SDS011;40102;50.906;6.972;2023-09-19T05:30:33;5.40;;;1.20;;
54193;SDS011;40102;50.906;6.972;2023-09-19T05:33:00;5.47;;;1.30;;
54193;SDS011;40102;50.906;6.972;2023-09-19T05:35:27;5.80;;;1.45;;
54193;SDS011;40102;50.906;6.972;2023-09-19T05:37:52;3.97;;;1.13;;
54193;SDS011;40102;50.906;6.972;2023-09-19T05:40:20;9.50;;;1.50;;
54193;SDS011;40102;50.906;6.972;2023-09-19T05:42:46;6.97;;;1.77;;
54193;SDS011;40102;50.906;6.972;2023-09-19T05:45:12;7.78;;;1.35;;
54193;SDS011;40102;50.906;6.972;2023-09-19T05:47:40;7.75;;;1.83;;
54193;SDS011;40102;50.906;6.972;2023-09-19T05:50:10;4.15;;;1.27;;
54193;SDS011;40102;50.906;6.972;2023-09-19T05:52:37;4.82;;;1.42;;
54193;SDS011;40102;50.906;6.972;2023-09-19T05:55:05;5.63;;;1.30;;
54193;SDS011;40102;50.906;6.972;2023-09-19T05:57:32;5.13;;;1.33;;
54193;SDS011;40102;50.906;6.972;2023-09-19T05:59:58;5.18;;;1.50;;
54193;SDS011;40102;50.906;6.972;2023-09-19T06:02:24;7.68;;;1.63;;
54193;SDS011;40102;50.906;6.972;2023-09-19T06:04:52;4.85;;;1.88;;
54193;SDS011;40102;50.906;6.972;2023-09-19T06:07:23;4.82;;;1.35;;
54193;SDS011;40102;50.906;6.972;2023-09-19T06:09:51;5.28;;;1.52;;
54193;SDS011;40102;50.906;6.972;2023-09-19T06:12:18;8.00;;;1.20;;
54193;SDS011;40102;50.906;6.972;2023-09-19T06:14:44;7.25;;;1.92;;
54193;SDS011;40102;50.906;6.972;2023-09-19T06:17:09;5.15;;;1.55;;
54193;SDS011;40102;50.906;6.972;2023-09-19T06:19:35;6.18;;;1.27;;
54193;SDS011;40102;50.906;6.972;2023-09-19T06:22:01;5.63;;;1.75;;
54193;SDS011;40102;50.906;6.972;2023-09-19T06:24:26;6.30;;;1.15;;
54193;SDS011;40102;50.906;6.972;2023-09-19T06:26:52;3.55;;;1.33;;
54193;SDS011;40102;50.906;6.972;2023-09-19T06:29:17;5.93;;;1.23;;
54193;SDS011;40102;50.906;6.972;2023-09-19T06:31:43;5.47;;;1.30;;
54193;SDS011;40102;50.906;6.972;2023-09-19T06:34:09;6.90;;;1.50;;
54193;SDS011;40102;50.906;6.972;2023-09-19T06:36:35;5.45;;;1.42;;
54193;SDS011;40102;50.906;6.972;2023-09-19T06:39:00;3.83;;;1.20;;
54193;SDS011;40102;50.906;6.972;2023-09-19T06:41:25;6.68;;;1.27;;
54193;SDS011;40102;50.906;6.972;2023-09-19T06:43:51;6.38;;;1.25;;
54193;SDS011;40102;50.906;6.972;2023-09-19T06:46:19;8.18;;;1.50;;
54193;SDS011;40102;50.906;6.972;2023-09-19T06:48:44;6.07;;;1.90;;
54193;SDS011;40102;50.906;6.972;2023-09-19T06:51:12;4.55;;;1.38;;
54193;SDS011;40102;50.906;6.972;2023-09-19T06:53:40;7.35;;;1.60;;
54193;SDS011;40102;50.906;6.972;2023-09-19T06:56:06;7.10;;;1.65;;
54193;SDS011;40102;50.906;6.972;2023-09-19T06:58:31;4.53;;;1.42;;
54193;SDS011;40102;50.906;6.972;2023-09-19T07:00:57;16.90;;;1.58;;
54193;SDS011;40102;50.906;6.972;2023-09-19T07:03:22;7.38;;;1.55;;
54193;SDS011;40102;50.906;6.972;2023-09-19T07:05:51;4.05;;;1.30;;
54193;SDS011;40102;50.906;6.972;2023-09-19T07:08:16;9.60;;;1.63;;
54193;SDS011;40102;50.906;6.972;2023-09-19T07:10:41;5.22;;;1.80;;
54193;SDS011;40102;50.906;6.972;2023-09-19T07:13:13;7.60;;;1.90;;
54193;SDS011;40102;50.906;6.972;2023-09-19T07:15:41;6.90;;;1.52;;
54193;SDS011;40102;50.906;6.972;2023-09-19T07:18:17;4.50;;;1.45;;
54193;SDS011;40102;50.906;6.972;2023-09-19T07:20:43;3.72;;;1.27;;
54193;SDS011;40102;50.906;6.972;2023-09-19T07:23:17;5.70;;;1.52;;
54193;SDS011;40102;50.906;6.972;2023-09-19T07:25:45;5.40;;;1.55;;
54193;SDS011;40102;50.906;6.972;2023-09-19T07:28:11;11.88;;;1.60;;
54193;SDS011;40102;50.906;6.972;2023-09-19T07:30:37;7.10;;;1.58;;
54193;SDS011;40102;50.906;6.972;2023-09-19T07:33:04;6.40;;;1.65;;
54193;SDS011;40102;50.906;6.972;2023-09-19T07:35:30;4.35;;;1.27;;
54193;SDS011;40102;50.906;6.972;2023-09-19T07:37:56;6.13;;;2.08;;
54193;SDS011;40102;50.906;6.972;2023-09-19T07:40:23;4.30;;;1.35;;
54193;SDS011;40102;50.906;6.972;2023-09-19T07:42:51;11.15;;;1.80;;
54193;SDS011;40102;50.906;6.972;2023-09-19T07:45:17;5.82;;;1.90;;
54193;SDS011;40102;50.906;6.972;2023-09-19T07:47:50;9.48;;;2.00;;
54193;SDS011;40102;50.906;6.972;2023-09-19T07:50:16;8.02;;;1.80;;
54193;SDS011;40102;50.906;6.972;2023-09-19T07:52:46;8.43;;;1.65;;
54193;SDS011;40102;50.906;6.972;2023-09-19T07:55:12;6.63;;;2.33;;
54193;SDS011;40102;50.906;6.972;2023-09-19T07:57:41;6.68;;;2.00;;
54193;SDS011;40102;50.906;6.972;2023-09-19T08:00:07;6.43;;;1.90;;
54193;SDS011;40102;50.906;6.972;2023-09-19T08:02:35;8.20;;;1.80;;
54193;SDS011;40102;50.906;6.972;2023-09-19T08:05:03;8.82;;;1.83;;
54193;SDS011;40102;50.906;6.972;2023-09-19T08:07:36;5.50;;;1.48;;
54193;SDS011;40102;50.906;6.972;2023-09-19T08:10:06;5.53;;;1.45;;
54193;SDS011;40102;50.906;6.972;2023-09-19T08:12:38;6.82;;;2.00;;
54193;SDS011;40102;50.906;6.972;2023-09-19T08:15:11;8.02;;;1.92;;
54193;SDS011;40102;50.906;6.972;2023-09-19T08:17:40;13.20;;;2.97;;
54193;SDS011;40102;50.906;6.972;2023-09-19T08:20:06;4.43;;;1.50;;
54193;SDS011;40102;50.906;6.972;2023-09-19T08:22:32;6.47;;;1.52;;
54193;SDS011;40102;50.906;6.972;2023-09-19T08:24:58;8.13;;;1.75;;
54193;SDS011;40102;50.906;6.972;2023-09-19T08:27:24;4.10;;;1.25;;
54193;SDS011;40102;50.906;6.972;2023-09-19T08:29:52;9.25;;;1.60;;
54193;SDS011;40102;50.906;6.972;2023-09-19T08:32:18;8.70;;;1.80;;
54193;SDS011;40102;50.906;6.972;2023-09-19T08:34:48;8.13;;;1.52;;
54193;SDS011;40102;50.906;6.972;2023-09-19T08:37:14;6.35;;;1.50;;
54193;SDS011;40102;50.906;6.972;2023-09-19T08:39:39;12.25;;;2.47;;
54193;SDS011;40102;50.906;6.972;2023-09-19T08:42:04;5.47;;;1.50;;
54193;SDS011;40102;50.906;6.972;2023-09-19T08:44:30;6.10;;;1.38;;
54193;SDS011;40102;50.906;6.972;2023-09-19T08:47:14;5.57;;;1.50;;
54193;SDS011;40102;50.906;6.972;2023-09-19T08:55:19;5.75;;;1.27;;
54193;SDS011;40102;50.906;6.972;2023-09-19T08:57:51;4.75;;;1.40;;
54193;SDS011;40102;50.906;6.972;2023-09-19T09:00:17;3.80;;;1.17;;
54193;SDS011;40102;50.906;6.972;2023-09-19T09:02:45;10.90;;;1.60;;
54193;SDS011;40102;50.906;6.972;2023-09-19T09:05:12;2.60;;;1.17;;
54193;SDS011;40102;50.906;6.972;2023-09-19T09:07:38;8.27;;;1.70;;
54193;SDS011;40102;50.906;6.972;2023-09-19T09:10:04;6.03;;;1.33;;
54193;SDS011;40102;50.906;6.972;2023-09-19T09:12:30;3.42;;;0.95;;
54193;SDS011;40102;50.906;6.972;2023-09-19T09:14:55;6.60;;;1.40;;
54193;SDS011;40102;50.906;6.972;2023-09-19T09:17:22;4.60;;;1.35;;
54193;SDS011;40102;50.906;6.972;2023-09-19T09:19:51;4.22;;;1.20;;
54193;SDS011;40102;50.906;6.972;2023-09-19T09:22:18;7.60;;;1.35;;
54193;SDS011;40102;50.906;6.972;2023-09-19T09:24:56;8.88;;;1.17;;
54193;SDS011;40102;50.906;6.972;2023-09-19T09:27:23;6.78;;;1.33;;
54193;SDS011;40102;50.906;6.972;2023-09-19T09:29:49;6.53;;;1.30;;
54193;SDS011;40102;50.906;6.972;2023-09-19T09:32:17;6.47;;;1.40;;
54193;SDS011;40102;50.906;6.972;2023-09-19T09:34:43;5.20;;;1.17;;
54193;SDS011;40102;50.906;6.972;2023-09-19T09:37:18;5.90;;;1.40;;
54193;SDS011;40102;50.906;6.972;2023-09-19T09:39:55;6.20;;;1.20;;
54193;SDS011;40102;50.906;6.972;2023-09-19T09:42:33;4.20;;;1.35;;
54193;SDS011;40102;50.906;6.972;2023-09-19T09:45:20;5.68;;;1.20;;
54193;SDS011;40102;50.906;6.972;2023-09-19T09:47:54;9.73;;;1.23;;
54193;SDS011;40102;50.906;6.972;2023-09-19T09:50:29;8.70;;;1.73;;
54193;SDS011;40102;50.906;6.972;2023-09-19T09:53:04;4.60;;;0.95;;
54193;SDS011;40102;50.906;6.972;2023-09-19T09:58:34;4.25;;;1.35;;
54193;SDS011;40102;50.906;6.972;2023-09-19T10:01:14;4.35;;;1.00;;
54193;SDS011;40102;50.906;6.972;2023-09-19T10:03:41;4.97;;;1.23;;
54193;SDS011;40102;50.906;6.972;2023-09-19T10:06:15;4.03;;;1.00;;
54193;SDS011;40102;50.906;6.972;2023-09-19T10:14:12;5.20;;;1.20;;
54193;SDS011;40102;50.906;6.972;2023-09-19T10:16:40;4.53;;;1.00;;
54193;SDS011;40102;50.906;6.972;2023-09-19T10:19:29;2.90;;;1.02;;
54193;SDS011;40102;50.906;6.972;2023-09-19T10:22:14;6.25;;;2.33;;
54193;SDS011;40102;50.906;6.972;2023-09-19T10:24:45;1.95;;;1.23;;
54193;SDS011;40102;50.906;6.972;2023-09-19T10:27:12;6.78;;;1.20;;
54193;SDS011;40102;50.906;6.972;2023-09-19T10:29:42;5.00;;;1.10;;
54193;SDS011;40102;50.906;6.972;2023-09-19T10:32:09;4.85;;;1.10;;
54193;SDS011;40102;50.906;6.972;2023-09-19T10:34:43;4.00;;;1.10;;
54193;SDS011;40102;50.906;6.972;2023-09-19T10:37:12;4.97;;;1.23;;
54193;SDS011;40102;50.906;6.972;2023-09-19T10:39:39;2.08;;;1.10;;
54193;SDS011;40102;50.906;6.972;2023-09-19T10:42:05;3.65;;;0.98;;
54193;SDS011;40102;50.906;6.972;2023-09-19T10:44:32;3.33;;;1.20;;
54193;SDS011;40102;50.906;6.972;2023-09-19T10:46:58;3.85;;;1.10;;
54193;SDS011;40102;50.906;6.972;2023-09-19T10:49:24;3.33;;;1.52;;
54193;SDS011;40102;50.906;6.972;2023-09-19T10:51:52;4.10;;;1.20;;
54193;SDS011;40102;50.906;6.972;2023-09-19T10:54:23;3.58;;;1.17;;
54193;SDS011;40102;50.906;6.972;2023-09-19T10:56:52;5.80;;;1.02;;
54193;SDS011;40102;50.906;6.972;2023-09-19T10:59:20;6.22;;;1.55;;
54193;SDS011;40102;50.906;6.972;2023-09-19T11:01:47;4.38;;;1.40;;
54193;SDS011;40102;50.906;6.972;2023-09-19T11:07:02;5.95;;;1.40;;
54193;SDS011;40102;50.906;6.972;2023-09-19T11:12:11;3.75;;;1.42;;
54193;SDS011;40102;50.906;6.972;2023-09-19T11:14:38;3.55;;;1.10;;
54193;SDS011;40102;50.906;6.972;2023-09-19T11:30:47;5.68;;;1.48;;
54193;SDS011;40102;50.906;6.972;2023-09-19T11:33:23;7.70;;;1.40;;
54193;SDS011;40102;50.906;6.972;2023-09-19T11:36:06;4.80;;;1.25;;
54193;SDS011;40102;50.906;6.972;2023-09-19T11:44:38;3.00;;;1.30;;
54193;SDS011;40102;50.906;6.972;2023-09-19T11:49:17;6.35;;;1.45;;
54193;SDS011;40102;50.906;6.972;2023-09-19T11:51:46;9.57;;;1.92;;
54193;SDS011;40102;50.906;6.972;2023-09-19T11:54:15;6.65;;;1.15;;
54193;SDS011;40102;50.906;6.972;2023-09-19T11:56:44;5.43;;;1.10;;
54193;SDS011;40102;50.906;6.972;2023-09-19T11:59:11;3.28;;;1.35;;
54193;SDS011;40102;50.906;6.972;2023-09-19T12:01:37;3.58;;;1.20;;
54193;SDS011;40102;50.906;6.972;2023-09-19T12:04:10;4.53;;;1.45;;
54193;SDS011;40102;50.906;6.972;2023-09-19T12:06:37;5.03;;;0.90;;
54193;SDS011;40102;50.906;6.972;2023-09-19T12:09:12;5.30;;;1.55;;
54193;SDS011;40102;50.906;6.972;2023-09-19T12:11:44;3.45;;;1.10;;
54193;SDS011;40102;50.906;6.972;2023-09-19T12:14:10;4.53;;;1.02;;
54193;SDS011;40102;50.906;6.972;2023-09-19T12:16:36;5.78;;;1.42;;
54193;SDS011;40102;50.906;6.972;2023-09-19T12:19:18;3.28;;;1.25;;
54193;SDS011;40102;50.906;6.972;2023-09-19T12:21:55;2.90;;;0.85;;
54193;SDS011;40102;50.906;6.972;2023-09-19T12:24:25;6.93;;;1.58;;
54193;SDS011;40102;50.906;6.972;2023-09-19T12:26:51;2.88;;;1.23;;
54193;SDS011;40102;50.906;6.972;2023-09-19T12:29:20;4.80;;;1.30;;
54193;SDS011;40102;50.906;6.972;2023-09-19T12:31:50;2.90;;;1.08;;
54193;SDS011;40102;50.906;6.972;2023-09-19T12:34:29;4.95;;;1.30;;
54193;SDS011;40102;50.906;6.972;2023-09-19T12:37:09;7.07;;;1.42;;
54193;SDS011;40102;50.906;6.972;2023-09-19T12:39:53;3.33;;;1.08;;
54193;SDS011;40102;50.906;6.972;2023-09-19T12:42:21;3.13;;;1.13;;
54193;SDS011;40102;50.906;6.972;2023-09-19T12:44:54;3.60;;;1.05;;
54193;SDS011;40102;50.906;6.972;2023-09-19T12:47:21;3.95;;;1.05;;
54193;SDS011;40102;50.906;6.972;2023-09-19T12:52:42;4.35;;;1.00;;
54193;SDS011;40102;50.906;6.972;2023-09-19T12:55:18;5.57;;;1.20;;
54193;SDS011;40102;50.906;6.972;2023-09-19T12:57:54;6.40;;;1.02;;
54193;SDS011;40102;50.906;6.972;2023-09-19T13:00:40;6.45;;;1.00;;
54193;SDS011;40102;50.906;6.972;2023-09-19T13:06:13;5.43;;;1.23;;
54193;SDS011;40102;50.906;6.972;2023-09-19T13:08:35;3.25;;;1.05;;
54193;SDS011;40102;50.906;6.972;2023-09-19T13:16:19;3.00;;;0.82;;
54193;SDS011;40102;50.906;6.972;2023-09-19T13:18:50;2.72;;;0.88;;
54193;SDS011;40102;50.906;6.972;2023-09-19T13:21:34;4.25;;;0.70;;
54193;SDS011;40102;50.906;6.972;2023-09-19T13:24:21;3.72;;;1.10;;
54193;SDS011;40102;50.906;6.972;2023-09-19T13:26:51;3.53;;;1.05;;
54193;SDS011;40102;50.906;6.972;2023-09-19T13:29:16;3.63;;;0.90;;
54193;SDS011;40102;50.906;6.972;2023-09-19T13:31:50;2.63;;;1.02;;
54193;SDS011;40102;50.906;6.972;2023-09-19T13:34:18;5.57;;;1.10;;
54193;SDS011;40102;50.906;6.972;2023-09-19T13:36:44;2.88;;;1.00;;
54193;SDS011;40102;50.906;6.972;2023-09-19T13:39:10;2.75;;;0.80;;
54193;SDS011;40102;50.906;6.972;2023-09-19T13:41:38;2.53;;;0.75;;
54193;SDS011;40102;50.906;6.972;2023-09-19T13:44:03;8.68;;;1.00;;
54193;SDS011;40102;50.906;6.972;2023-09-19T13:46:29;2.33;;;0.88;;
54193;SDS011;40102;50.906;6.972;2023-09-19T13:48:58;2.30;;;0.90;;
54193;SDS011;40102;50.906;6.972;2023-09-19T13:51:24;4.00;;;1.15;;
54193;SDS011;40102;50.906;6.972;2023-09-19T13:53:51;5.18;;;0.70;;
54193;SDS011;40102;50.906;6.972;2023-09-19T13:56:16;5.05;;;0.80;;
54193;SDS011;40102;50.906;6.972;2023-09-19T13:58:41;4.40;;;0.80;;
54193;SDS011;40102;50.906;6.972;2023-09-19T14:01:07;3.30;;;0.70;;
54193;SDS011;40102;50.906;6.972;2023-09-19T14:03:37;3.55;;;1.08;;
54193;SDS011;40102;50.906;6.972;2023-09-19T14:06:03;5.05;;;0.90;;
54193;SDS011;40102;50.906;6.972;2023-09-19T14:08:29;4.75;;;0.77;;
54193;SDS011;40102;50.906;6.972;2023-09-19T14:10:54;5.97;;;1.00;;
54193;SDS011;40102;50.906;6.972;2023-09-19T14:13:19;4.05;;;0.70;;
54193;SDS011;40102;50.906;6.972;2023-09-19T14:15:45;2.67;;;0.70;;
54193;SDS011;40102;50.906;6.972;2023-09-19T14:18:11;4.47;;;0.93;;
54193;SDS011;40102;50.906;6.972;2023-09-19T14:20:37;4.68;;;0.70;;
54193;SDS011;40102;50.906;6.972;2023-09-19T14:23:05;2.13;;;0.68;;
54193;SDS011;40102;50.906;6.972;2023-09-19T14:25:31;5.43;;;0.90;;
54193;SDS011;40102;50.906;6.972;2023-09-19T14:27:59;4.80;;;0.90;;
54193;SDS011;40102;50.906;6.972;2023-09-19T14:30:24;3.05;;;0.75;;
54193;SDS011;40102;50.906;6.972;2023-09-19T14:32:50;2.33;;;0.60;;
54193;SDS011;40102;50.906;6.972;2023-09-19T14:35:16;4.25;;;0.70;;
54193;SDS011;40102;50.906;6.972;2023-09-19T14:37:41;2.90;;;0.70;;
54193;SDS011;40102;50.906;6.972;2023-09-19T14:40:07;3.83;;;0.70;;
54193;SDS011;40102;50.906;6.972;2023-09-19T14:42:34;4.22;;;0.77;;
54193;SDS011;40102;50.906;6.972;2023-09-19T14:45:04;2.20;;;0.70;;
54193;SDS011;40102;50.906;6.972;2023-09-19T14:50:46;3.20;;;0.80;;
54193;SDS011;40102;50.906;6.972;2023-09-19T14:53:15;3.80;;;1.00;;
54193;SDS011;40102;50.906;6.972;2023-09-19T14:55:44;3.65;;;0.50;;
54193;SDS011;40102;50.906;6.972;2023-09-19T14:58:12;1.10;;;0.68;;
54193;SDS011;40102;50.906;6.972;2023-09-19T15:00:38;2.08;;;0.52;;
54193;SDS011;40102;50.906;6.972;2023-09-19T15:03:04;1.98;;;0.70;;
54193;SDS011;40102;50.906;6.972;2023-09-19T15:05:29;2.28;;;0.57;;
54193;SDS011;40102;50.906;6.972;2023-09-19T15:07:55;4.40;;;0.90;;
54193;SDS011;40102;50.906;6.972;2023-09-19T15:10:22;2.33;;;0.50;;
54193;SDS011;40102;50.906;6.972;2023-09-19T15:12:47;0.65;;;0.38;;
54193;SDS011;40102;50.906;6.972;2023-09-19T15:15:33;3.70;;;0.47;;
54193;SDS011;40102;50.906;6.972;2023-09-19T15:17:59;2.72;;;0.60;;
54193;SDS011;40102;50.906;6.972;2023-09-19T15:20:24;2.55;;;0.60;;
54193;SDS011;40102;50.906;6.972;2023-09-19T15:22:51;1.75;;;0.50;;
54193;SDS011;40102;50.906;6.972;2023-09-19T15:25:16;1.73;;;0.55;;
54193;SDS011;40102;50.906;6.972;2023-09-19T15:27:44;3.00;;;0.90;;
54193;SDS011;40102;50.906;6.972;2023-09-19T15:30:17;2.22;;;0.50;;
54193;SDS011;40102;50.906;6.972;2023-09-19T15:32:43;2.65;;;0.70;;
54193;SDS011;40102;50.906;6.972;2023-09-19T15:35:08;1.77;;;0.50;;
54193;SDS011;40102;50.906;6.972;2023-09-19T15:37:36;3.15;;;0.82;;
54193;SDS011;40102;50.906;6.972;2023-09-19T15:40:02;2.85;;;0.80;;
54193;SDS011;40102;50.906;6.972;2023-09-19T15:42:33;1.45;;;0.50;;
54193;SDS011;40102;50.906;6.972;2023-09-19T15:45:02;2.80;;;0.57;;
54193;SDS011;40102;50.906;6.972;2023-09-19T15:47:28;2.55;;;0.50;;
54193;SDS011;40102;50.906;6.972;2023-09-19T15:49:54;2.30;;;0.80;;
54193;SDS011;40102;50.906;6.972;2023-09-19T15:52:19;1.48;;;0.60;;
54193;SDS011;40102;50.906;6.972;2023-09-19T15:54:45;1.42;;;0.57;;
54193;SDS011;40102;50.906;6.972;2023-09-19T15:57:10;3.53;;;0.80;;
54193;SDS011;40102;50.906;6.972;2023-09-19T15:59:37;5.38;;;0.77;;
54193;SDS011;40102;50.906;6.972;2023-09-19T16:02:03;2.72;;;0.80;;
54193;SDS011;40102;50.906;6.972;2023-09-19T16:04:29;3.40;;;0.70;;